createdAt,value
2022-12-26T00:00:18.370Z,85.66
2022-12-26T00:03:07.654Z,85.19
2022-12-26T00:05:58.672Z,85.41
2022-12-26T00:08:48.662Z,85.68
2022-12-26T00:11:39.390Z,85.15
2022-12-26T00:14:28.764Z,85.07
2022-12-26T00:17:19.403Z,85.34
2022-12-26T00:20:10.062Z,85.23
2022-12-26T00:22:59.501Z,85.46
2022-12-26T00:25:48.825Z,85.90
2022-12-26T00:28:38.815Z,86.17
2022-12-26T00:31:30.911Z,86.31
2022-12-26T00:34:21.696Z,86.59
2022-12-26T00:37:11.630Z,86.09
2022-12-26T00:40:00.892Z,86.11
2022-12-26T00:42:50.396Z,86.17
2022-12-26T00:45:39.759Z,86.62
2022-12-26T00:48:29.226Z,86.40
2022-12-26T00:51:20.220Z,86.24
2022-12-26T00:54:09.471Z,86.08
2022-12-26T00:56:58.697Z,85.70
2022-12-26T00:59:47.847Z,86.30
2022-12-26T01:02:40.438Z,85.96
2022-12-26T01:05:30.277Z,86.09
2022-12-26T01:08:24.833Z,85.80
2022-12-26T01:11:36.560Z,86.55
2022-12-26T01:14:25.774Z,86.66
2022-12-26T01:17:15.122Z,87.03
2022-12-26T01:20:04.778Z,86.93
2022-12-26T01:22:54.722Z,86.41
2022-12-26T01:26:18.985Z,86.83
2022-12-26T01:28:54.855Z,87.16
2022-12-26T01:31:44.112Z,87.37
2022-12-26T01:34:33.622Z,86.69
2022-12-26T01:37:24.081Z,86.91
2022-12-26T01:40:14.561Z,86.84
2022-12-26T01:43:05.183Z,86.79
2022-12-26T01:45:54.786Z,86.61
2022-12-26T01:48:44.153Z,86.57
2022-12-26T01:51:38.379Z,86.28
2022-12-26T01:54:40.048Z,87.12
2022-12-26T01:57:37.718Z,85.81
2022-12-26T02:00:28.820Z,85.86
2022-12-26T02:03:36.890Z,86.12
2022-12-26T02:06:26.312Z,86.04
2022-12-26T02:09:15.547Z,85.79
2022-12-26T02:12:37.218Z,85.36
2022-12-26T02:15:23.970Z,85.51
2022-12-26T02:18:14.687Z,85.48
2022-12-26T02:21:37.851Z,85.59
2022-12-26T02:24:51.370Z,85.12
2022-12-26T02:28:10.544Z,84.60
2022-12-26T02:31:07.312Z,86.00
2022-12-26T02:34:09.331Z,85.28
2022-12-26T02:37:12.831Z,85.20
2022-12-26T02:40:21.613Z,84.58
2022-12-26T02:43:23.247Z,84.35
2022-12-26T02:46:53.022Z,84.67
2022-12-26T02:50:22.818Z,85.02
2022-12-26T02:53:39.576Z,85.25
2022-12-26T02:56:51.310Z,85.23
2022-12-26T03:00:10.904Z,85.46
2022-12-26T03:03:22.899Z,84.96
2022-12-26T03:06:36.099Z,84.54
2022-12-26T03:09:47.893Z,85.13
2022-12-26T03:13:00.868Z,84.90
2022-12-26T03:16:15.028Z,84.44
2022-12-26T03:19:12.318Z,83.79
2022-12-26T03:22:23.509Z,84.35
2022-12-26T03:25:36.991Z,84.48
2022-12-26T03:28:27.135Z,84.38
2022-12-26T03:31:16.516Z,84.48
2022-12-26T03:34:20.699Z,84.61
2022-12-26T03:37:47.663Z,85.04
2022-12-26T03:41:10.049Z,84.71
2022-12-26T03:44:34.233Z,84.74
2022-12-26T03:47:53.424Z,84.92
2022-12-26T03:51:06.339Z,84.72
2022-12-26T03:54:21.848Z,84.68
2022-12-26T03:57:35.407Z,83.96
2022-12-26T04:00:42.349Z,84.01
2022-12-26T04:03:52.767Z,83.82
2022-12-26T04:07:08.075Z,83.98
2022-12-26T04:10:21.886Z,84.02
2022-12-26T04:13:38.536Z,83.69
2022-12-26T04:16:59.496Z,83.70
2022-12-26T04:20:03.551Z,83.17
2022-12-26T04:23:17.184Z,83.77
2022-12-26T04:26:27.226Z,82.97
2022-12-26T04:29:34.434Z,83.91
2022-12-26T04:32:53.214Z,83.33
2022-12-26T04:36:08.322Z,83.16
2022-12-26T04:39:21.852Z,83.08
2022-12-26T04:42:31.080Z,82.68
2022-12-26T04:45:22.100Z,82.54
2022-12-26T04:48:30.692Z,83.00
2022-12-26T04:51:19.884Z,82.64
2022-12-26T04:54:10.765Z,82.60
2022-12-26T04:57:00.026Z,82.41
2022-12-26T04:59:49.301Z,82.43
2022-12-26T05:02:55.894Z,82.42
2022-12-26T05:06:05.795Z,82.20
2022-12-26T05:09:12.613Z,82.56
2022-12-26T05:12:03.663Z,82.89
2022-12-26T05:14:52.872Z,83.19
2022-12-26T05:17:59.344Z,82.57
2022-12-26T05:21:05.640Z,82.95
2022-12-26T05:24:12.011Z,81.78
2022-12-26T05:27:20.111Z,81.48
2022-12-26T05:30:10.732Z,81.93
2022-12-26T05:33:17.100Z,82.34
2022-12-26T05:36:06.970Z,82.07
2022-12-26T05:38:56.973Z,82.48
2022-12-26T05:41:46.339Z,81.78
2022-12-26T05:44:37.649Z,81.74
2022-12-26T05:47:26.904Z,82.11
2022-12-26T05:50:16.291Z,82.30
2022-12-26T05:53:05.615Z,81.95
2022-12-26T05:55:54.987Z,81.82
2022-12-26T05:58:44.467Z,82.02
2022-12-26T06:01:35.239Z,82.02
2022-12-26T06:04:24.840Z,81.94
2022-12-26T06:07:14.040Z,82.36
2022-12-26T06:10:03.327Z,82.66
2022-12-26T06:12:53.927Z,82.68
2022-12-26T06:15:43.214Z,82.88
2022-12-26T06:18:33.905Z,82.81
2022-12-26T06:21:25.344Z,83.11
2022-12-26T06:24:15.355Z,82.79
2022-12-26T06:27:04.794Z,82.86
2022-12-26T06:29:54.029Z,82.96
2022-12-26T06:32:43.277Z,82.62
2022-12-26T06:35:35.727Z,82.92
2022-12-26T06:38:24.902Z,83.13
2022-12-26T06:41:17.269Z,82.98
2022-12-26T06:44:06.899Z,82.54
2022-12-26T06:46:56.167Z,82.90
2022-12-26T06:49:45.569Z,82.58
2022-12-26T06:52:36.208Z,83.22
2022-12-26T06:55:25.463Z,82.87
2022-12-26T06:58:15.979Z,82.90
2022-12-26T07:01:09.977Z,83.12
2022-12-26T07:04:00.260Z,82.72
2022-12-26T07:06:49.569Z,82.64
2022-12-26T07:09:40.175Z,82.48
2022-12-26T07:12:29.347Z,82.02
2022-12-26T07:15:18.803Z,82.56
2022-12-26T07:18:08.031Z,82.14
2022-12-26T07:20:57.301Z,82.00
2022-12-26T07:23:46.655Z,82.43
2022-12-26T07:26:37.247Z,82.64
2022-12-26T07:29:27.033Z,82.88
2022-12-26T07:32:16.398Z,83.21
2022-12-26T07:35:06.753Z,82.87
2022-12-26T07:37:56.199Z,82.69
2022-12-26T07:40:45.686Z,83.04
2022-12-26T07:43:36.371Z,82.75
2022-12-26T07:46:25.704Z,82.94
2022-12-26T07:49:15.425Z,83.03
2022-12-26T07:52:04.798Z,82.83
2022-12-26T07:54:54.121Z,82.48
2022-12-26T07:57:50.527Z,82.76
2022-12-26T08:00:41.353Z,82.07
2022-12-26T08:03:30.786Z,82.37
2022-12-26T08:06:20.803Z,81.55
2022-12-26T08:09:15.983Z,81.90
2022-12-26T08:12:05.625Z,82.14
2022-12-26T08:14:54.848Z,82.37
2022-12-26T08:17:45.454Z,82.40
2022-12-26T08:20:35.277Z,82.45
2022-12-26T08:23:24.506Z,82.79
2022-12-26T08:26:20.794Z,82.16
2022-12-26T08:29:11.516Z,82.09
2022-12-26T08:32:00.960Z,81.92
2022-12-26T08:34:51.556Z,81.80
2022-12-26T08:37:40.839Z,81.75
2022-12-26T08:40:42.721Z,82.03
2022-12-26T08:46:42.917Z,81.07
2022-12-26T08:49:32.202Z,81.54
2022-12-26T08:52:22.883Z,81.40
2022-12-26T08:55:13.693Z,81.87
2022-12-26T08:58:02.933Z,81.73
2022-12-26T09:00:55.412Z,82.08
2022-12-26T09:03:45.716Z,82.37
2022-12-26T09:06:38.068Z,81.97
2022-12-26T09:09:29.052Z,82.42
2022-12-26T09:12:18.358Z,81.69
2022-12-26T09:15:08.623Z,81.81
2022-12-26T09:17:57.940Z,81.63
2022-12-26T09:20:47.188Z,80.85
2022-12-26T09:23:36.773Z,80.31
2022-12-26T09:26:27.693Z,80.46
2022-12-26T09:29:16.927Z,80.46
2022-12-26T09:32:06.941Z,80.18
2022-12-26T09:34:56.168Z,80.38
2022-12-26T09:37:45.845Z,80.01
2022-12-26T09:40:52.151Z,79.94
2022-12-26T09:43:59.905Z,79.52
2022-12-26T09:47:02.426Z,79.98
2022-12-26T09:49:57.991Z,80.15
2022-12-26T09:52:51.806Z,80.25
2022-12-26T09:55:46.352Z,80.32
2022-12-26T09:58:43.592Z,80.60
2022-12-26T10:01:37.861Z,80.42
2022-12-26T10:04:30.345Z,80.46
2022-12-26T10:07:29.580Z,80.60
2022-12-26T10:10:26.064Z,80.74
2022-12-26T10:13:32.488Z,81.16
2022-12-26T10:16:30.024Z,80.34
2022-12-26T10:19:36.566Z,80.54
2022-12-26T10:22:52.975Z,80.06
2022-12-26T10:25:52.584Z,79.89
2022-12-26T10:28:50.435Z,79.44
2022-12-26T10:31:47.345Z,79.16
2022-12-26T10:34:43.106Z,78.43
2022-12-26T10:37:39.045Z,78.36
2022-12-26T10:40:36.918Z,77.86
2022-12-26T10:43:31.548Z,77.66
2022-12-26T10:46:41.042Z,77.40
2022-12-26T10:49:30.866Z,77.58
2022-12-26T10:52:29.084Z,77.49
2022-12-26T10:55:29.094Z,77.31
2022-12-26T10:58:25.258Z,77.59
2022-12-26T11:01:37.008Z,77.47
2022-12-26T11:07:41.698Z,77.38
2022-12-26T11:10:31.493Z,77.43
2022-12-26T11:13:24.368Z,77.24
2022-12-26T11:16:14.139Z,77.23
2022-12-26T11:19:03.929Z,77.25
2022-12-26T11:21:53.189Z,77.25
2022-12-26T11:24:43.975Z,78.13
2022-12-26T11:27:33.964Z,78.03
2022-12-26T11:30:31.316Z,78.23
2022-12-26T11:33:27.073Z,78.02
2022-12-26T11:36:23.621Z,77.89
2022-12-26T11:39:24.230Z,78.67
2022-12-26T11:42:25.487Z,78.59
2022-12-26T11:45:21.898Z,78.08
2022-12-26T11:48:24.652Z,78.11
2022-12-26T11:51:14.723Z,77.94
2022-12-26T11:54:29.920Z,77.88
2022-12-26T11:57:28.955Z,77.78
2022-12-26T12:00:22.178Z,77.65
2022-12-26T12:03:16.585Z,75.71
2022-12-26T12:06:28.286Z,72.91
2022-12-26T12:09:27.340Z,70.04
2022-12-26T12:12:24.380Z,69.20
2022-12-26T12:15:24.076Z,66.62
2022-12-26T12:18:23.832Z,65.10
2022-12-26T12:21:28.514Z,65.09
2022-12-26T12:24:39.499Z,65.93
2022-12-26T12:27:33.254Z,66.90
2022-12-26T12:30:30.163Z,67.92
2022-12-26T12:33:39.772Z,69.40
2022-12-26T12:36:38.258Z,70.09
2022-12-26T12:39:46.398Z,71.07
2022-12-26T12:42:47.731Z,71.58
2022-12-26T12:45:50.757Z,72.14
2022-12-26T12:49:02.384Z,72.41
2022-12-26T12:52:11.223Z,72.54
2022-12-26T12:55:33.104Z,72.61
2022-12-26T12:58:30.313Z,72.34
2022-12-26T13:01:28.380Z,72.73
2022-12-26T13:04:25.512Z,72.36
2022-12-26T13:07:21.813Z,72.84
2022-12-26T13:10:20.742Z,72.42
2022-12-26T13:13:19.731Z,73.06
2022-12-26T13:16:15.200Z,73.33
2022-12-26T13:19:10.954Z,73.35
2022-12-26T13:22:06.437Z,73.44
2022-12-26T13:25:00.176Z,73.39
2022-12-26T13:27:52.734Z,73.76
2022-12-26T13:30:42.135Z,73.95
2022-12-26T13:33:32.757Z,74.04
2022-12-26T13:36:46.149Z,73.83
2022-12-26T13:39:42.322Z,74.00
2022-12-26T13:42:55.111Z,74.36
2022-12-26T13:45:57.488Z,74.25
2022-12-26T13:49:00.078Z,74.20
2022-12-26T13:52:01.161Z,74.56
2022-12-26T13:55:43.615Z,74.58
2022-12-26T13:58:54.135Z,73.83
2022-12-26T14:02:01.492Z,74.44
2022-12-26T14:05:06.587Z,74.21
2022-12-26T14:08:05.677Z,74.18
2022-12-26T14:11:10.185Z,74.04
2022-12-26T14:14:13.865Z,74.55
2022-12-26T14:17:17.034Z,74.34
2022-12-26T14:20:26.824Z,74.01
2022-12-26T14:23:45.792Z,74.68
2022-12-26T14:26:59.447Z,75.00
2022-12-26T14:29:58.671Z,75.34
2022-12-26T14:33:04.785Z,75.62
2022-12-26T14:36:06.825Z,75.38
2022-12-26T14:39:05.014Z,75.71
2022-12-26T14:42:43.090Z,75.82
2022-12-26T14:45:49.560Z,75.70
2022-12-26T14:48:56.643Z,75.44
2022-12-26T14:51:46.659Z,75.62
2022-12-26T14:54:50.778Z,75.49
2022-12-26T14:57:48.688Z,75.84
2022-12-26T15:00:40.019Z,75.73
2022-12-26T15:03:45.824Z,75.62
2022-12-26T15:07:14.070Z,75.69
2022-12-26T15:10:43.839Z,75.79
2022-12-26T15:14:48.031Z,75.56
2022-12-26T15:17:51.492Z,75.66
2022-12-26T15:21:29.359Z,75.95
2022-12-26T15:29:06.468Z,75.90
2022-12-26T15:32:15.364Z,76.23
2022-12-26T15:35:22.709Z,77.04
2022-12-26T15:38:27.186Z,76.42
2022-12-26T15:41:28.025Z,77.17
2022-12-26T15:44:29.676Z,77.33
2022-12-26T15:47:28.618Z,76.94
2022-12-26T15:50:28.219Z,77.12
2022-12-26T15:53:30.601Z,77.28
2022-12-26T15:56:46.082Z,77.65
2022-12-26T16:00:10.083Z,76.97
2022-12-26T16:03:30.600Z,77.92
2022-12-26T16:06:44.141Z,77.94
2022-12-26T16:09:43.746Z,78.68
2022-12-26T16:12:40.837Z,79.14
2022-12-26T16:15:30.906Z,78.92
2022-12-26T16:18:22.831Z,79.43
2022-12-26T16:21:31.965Z,79.04
2022-12-26T16:24:23.083Z,79.15
2022-12-26T16:27:19.798Z,80.08
2022-12-26T16:30:17.885Z,80.29
2022-12-26T16:33:07.493Z,80.05
2022-12-26T16:36:00.933Z,79.98
2022-12-26T16:38:50.919Z,80.14
2022-12-26T16:42:04.949Z,80.10
2022-12-26T16:44:57.516Z,80.01
2022-12-26T16:47:47.681Z,80.35
2022-12-26T16:50:47.666Z,80.06
2022-12-26T16:53:45.677Z,80.16
2022-12-26T16:56:35.956Z,80.42
2022-12-26T16:59:30.160Z,80.09
2022-12-26T17:02:26.627Z,80.00
2022-12-26T17:05:23.620Z,80.20
2022-12-26T17:08:16.323Z,79.90
2022-12-26T17:11:05.694Z,79.83
2022-12-26T17:13:56.441Z,80.13
2022-12-26T17:16:47.092Z,79.42
2022-12-26T17:19:38.164Z,80.40
2022-12-26T17:22:32.656Z,80.19
2022-12-26T17:25:27.825Z,80.24
2022-12-26T17:28:25.400Z,80.09
2022-12-26T17:31:20.480Z,80.16
2022-12-26T17:34:20.905Z,80.39
2022-12-26T17:37:21.881Z,80.30
2022-12-26T17:40:27.406Z,80.41
2022-12-26T17:43:25.213Z,80.44
2022-12-26T17:46:18.067Z,80.29
2022-12-26T17:49:07.507Z,80.44
2022-12-26T17:52:01.769Z,80.84
2022-12-26T17:54:52.438Z,80.73
2022-12-26T17:57:41.724Z,80.51
2022-12-26T18:00:31.302Z,80.36
2022-12-26T18:03:21.105Z,80.40
2022-12-26T18:06:16.615Z,79.90
2022-12-26T18:09:08.206Z,79.78
2022-12-26T18:11:57.715Z,80.09
2022-12-26T18:14:47.068Z,80.39
2022-12-26T18:17:36.386Z,80.20
2022-12-26T18:20:29.041Z,80.77
2022-12-26T18:23:18.458Z,80.91
2022-12-26T18:26:17.695Z,81.25
2022-12-26T18:29:07.334Z,81.32
2022-12-26T18:31:56.657Z,81.62
2022-12-26T18:34:46.054Z,81.90
2022-12-26T18:37:35.342Z,82.04
2022-12-26T18:40:36.269Z,82.20
2022-12-26T18:43:26.957Z,82.25
2022-12-26T18:46:18.994Z,81.96
2022-12-26T18:49:08.423Z,82.11
2022-12-26T18:51:58.116Z,81.95
2022-12-26T18:54:47.414Z,82.25
2022-12-26T18:57:37.516Z,81.48
2022-12-26T19:00:28.384Z,81.20
2022-12-26T19:03:17.637Z,81.06
2022-12-26T19:06:07.769Z,80.89
2022-12-26T19:08:58.600Z,81.30
2022-12-26T19:11:47.911Z,81.50
2022-12-26T19:14:37.418Z,81.90
2022-12-26T19:17:28.312Z,82.18
2022-12-26T19:20:23.297Z,82.62
2022-12-26T19:23:12.845Z,82.72
2022-12-26T19:26:02.095Z,81.96
2022-12-26T19:28:53.481Z,82.58
2022-12-26T19:31:43.405Z,82.67
2022-12-26T19:34:34.368Z,81.99
2022-12-26T19:37:23.731Z,82.46
2022-12-26T19:40:18.393Z,82.36
2022-12-26T19:43:10.588Z,82.49
2022-12-26T19:46:04.051Z,82.83
2022-12-26T19:48:54.009Z,82.59
2022-12-26T19:51:44.900Z,82.49
2022-12-26T19:54:34.252Z,82.66
2022-12-26T19:57:23.629Z,82.38
2022-12-26T20:00:14.076Z,82.37
2022-12-26T20:03:03.526Z,82.41
2022-12-26T20:05:52.807Z,82.60
2022-12-26T20:08:45.413Z,82.65
2022-12-26T20:11:37.339Z,81.95
2022-12-26T20:14:28.427Z,82.04
2022-12-26T20:17:17.863Z,82.35
2022-12-26T20:20:08.591Z,82.29
2022-12-26T20:22:57.912Z,82.29
2022-12-26T20:25:48.646Z,82.25
2022-12-26T20:28:38.443Z,82.22
2022-12-26T20:31:28.091Z,82.75
2022-12-26T20:34:19.272Z,82.79
2022-12-26T20:37:08.627Z,82.24
2022-12-26T20:39:59.272Z,81.90
2022-12-26T20:42:50.012Z,82.74
2022-12-26T20:45:39.487Z,82.46
2022-12-26T20:48:28.834Z,82.68
2022-12-26T20:51:24.769Z,83.45
2022-12-26T20:54:16.165Z,82.46
2022-12-26T20:57:05.589Z,82.75
2022-12-26T20:59:56.356Z,82.80
2022-12-26T21:02:45.852Z,83.12
2022-12-26T21:05:35.303Z,82.69
2022-12-26T21:08:24.586Z,82.19
2022-12-26T21:11:17.107Z,82.06
2022-12-26T21:14:09.318Z,82.08
2022-12-26T21:17:00.633Z,82.12
2022-12-26T21:19:49.928Z,82.16
2022-12-26T21:22:39.436Z,82.21
2022-12-26T21:25:28.764Z,81.65
2022-12-26T21:28:18.457Z,81.65
2022-12-26T21:31:09.286Z,82.01
2022-12-26T21:34:01.791Z,82.43
2022-12-26T21:37:05.416Z,82.54
2022-12-26T21:39:54.891Z,82.29
2022-12-26T21:42:44.281Z,82.22
2022-12-26T21:45:33.564Z,82.63
2022-12-26T21:48:22.826Z,82.35
2022-12-26T21:51:13.543Z,82.60
2022-12-26T21:54:16.643Z,83.29
2022-12-26T21:57:05.976Z,83.59
2022-12-26T21:59:58.789Z,83.70
2022-12-26T22:03:06.340Z,83.29
2022-12-26T22:05:55.946Z,83.44
2022-12-26T22:08:46.989Z,83.57
2022-12-26T22:11:54.018Z,82.99
2022-12-26T22:14:43.278Z,83.21
2022-12-26T22:17:32.652Z,83.53
2022-12-26T22:20:21.919Z,84.06
2022-12-26T22:23:11.561Z,83.13
2022-12-26T22:26:02.827Z,83.26
2022-12-26T22:28:52.336Z,83.86
2022-12-26T22:31:41.625Z,83.88
2022-12-26T22:34:31.015Z,83.87
2022-12-26T22:37:20.251Z,83.48
2022-12-26T22:40:11.568Z,83.22
2022-12-26T22:43:02.232Z,84.05
2022-12-26T22:45:51.785Z,83.53
2022-12-26T22:48:41.695Z,83.86
2022-12-26T22:51:31.311Z,83.42
2022-12-26T22:54:20.574Z,83.30
2022-12-26T22:57:10.217Z,83.35
2022-12-26T23:00:09.568Z,83.63
2022-12-26T23:02:59.603Z,83.42
2022-12-26T23:05:49.787Z,83.71
2022-12-26T23:08:39.723Z,83.15
2022-12-26T23:11:35.140Z,82.72
2022-12-26T23:14:25.084Z,82.57
2022-12-26T23:17:39.183Z,83.34
2022-12-26T23:20:50.150Z,83.74
2022-12-26T23:23:40.453Z,83.77
2022-12-26T23:26:29.738Z,82.91
2022-12-26T23:29:39.759Z,83.07
2022-12-26T23:32:30.558Z,83.12
2022-12-26T23:35:22.035Z,82.93
2022-12-26T23:38:11.329Z,83.50
2022-12-26T23:41:00.668Z,83.48
2022-12-26T23:43:49.985Z,83.05
2022-12-26T23:46:40.697Z,83.42
2022-12-26T23:49:31.489Z,83.41
2022-12-26T23:52:26.752Z,83.91
2022-12-26T23:55:19.462Z,83.71
2022-12-26T23:58:08.806Z,83.26
